createdAt,value
2022-08-07T00:02:36.971Z,98198.38
2022-08-07T00:05:01.566Z,98192.13
2022-08-07T00:07:40.371Z,98200.28
2022-08-07T00:10:26.294Z,98198.25
2022-08-07T00:13:23.503Z,98197.44
2022-08-07T00:15:52.120Z,98193.31
2022-08-07T00:18:27.081Z,98192.28
2022-08-07T00:21:08.005Z,98195.41
2022-08-07T00:23:52.842Z,98188.53
2022-08-07T00:26:49.074Z,98194.84
2022-08-07T00:29:08.741Z,98197.53
2022-08-07T00:31:38.451Z,98193.38
2022-08-07T00:34:09.761Z,98187.34
2022-08-07T00:36:43.230Z,98195.72
2022-08-07T00:39:16.544Z,98200.47
2022-08-07T00:42:02.497Z,98195.16
2022-08-07T00:44:35.144Z,98192.34
2022-08-07T00:47:15.945Z,98189.66
2022-08-07T00:50:20.235Z,98193.63
2022-08-07T00:52:47.267Z,98191.78
2022-08-07T00:55:17.520Z,98185.75
2022-08-07T00:57:55.675Z,98190.16
2022-08-07T01:00:24.764Z,98184.34
2022-08-07T01:02:52.885Z,98189.34
2022-08-07T01:05:24.613Z,98185.22
2022-08-07T01:07:52.911Z,98182.72
2022-08-07T01:10:23.155Z,98185.25
2022-08-07T01:12:54.693Z,98189.84
2022-08-07T01:16:00.792Z,98175.91
2022-08-07T01:18:16.855Z,98192.56
2022-08-07T01:20:57.071Z,98189.25
2022-08-07T01:23:36.731Z,98179.28
2022-08-07T01:26:16.683Z,98181.56
2022-08-07T01:28:50.228Z,98188.47
2022-08-07T01:31:42.548Z,98183.25
2022-08-07T01:34:14.397Z,98187.00
2022-08-07T01:36:47.274Z,98180.56
2022-08-07T01:39:40.452Z,98181.16
2022-08-07T01:42:39.524Z,98180.97
2022-08-07T01:45:17.786Z,98185.34
2022-08-07T01:48:21.722Z,98193.06
2022-08-07T01:50:40.260Z,98184.56
2022-08-07T01:53:21.087Z,98187.47
2022-08-07T01:56:13.361Z,98183.69
2022-08-07T01:58:52.497Z,98189.53
2022-08-07T02:01:59.829Z,98180.41
2022-08-07T02:04:35.535Z,98171.66
2022-08-07T02:07:07.781Z,98175.22
2022-08-07T02:09:52.708Z,98178.13
2022-08-07T02:12:29.344Z,98176.44
2022-08-07T02:15:05.834Z,98165.25
2022-08-07T02:17:41.040Z,98167.09
2022-08-07T02:20:23.343Z,98158.78
2022-08-07T02:23:00.092Z,98164.41
2022-08-07T02:26:31.144Z,98162.97
2022-08-07T02:28:25.339Z,98159.22
2022-08-07T02:30:59.147Z,98159.03
2022-08-07T02:33:33.053Z,98154.44
2022-08-07T02:36:29.684Z,98153.16
2022-08-07T02:39:09.508Z,98151.31
2022-08-07T02:41:54.569Z,98151.31
2022-08-07T02:44:27.601Z,98146.97
2022-08-07T02:47:05.743Z,98154.66
2022-08-07T02:49:58.114Z,98153.63
2022-08-07T02:52:39.571Z,98147.38
2022-08-07T02:55:28.731Z,98152.16
2022-08-07T02:58:07.765Z,98148.84
2022-08-07T03:00:47.371Z,98140.09
2022-08-07T03:03:22.585Z,98138.06
2022-08-07T03:05:56.230Z,98140.13
2022-08-07T03:08:29.260Z,98141.56
2022-08-07T03:11:01.373Z,98139.72
2022-08-07T03:13:39.195Z,98135.53
2022-08-07T03:16:23.061Z,98143.44
2022-08-07T03:18:56.564Z,98138.66
2022-08-07T03:21:26.651Z,98143.41
2022-08-07T03:24:17.645Z,98145.28
2022-08-07T03:26:58.065Z,98150.69
2022-08-07T03:29:38.047Z,98150.06
2022-08-07T03:32:13.106Z,98146.75
2022-08-07T03:35:00.900Z,98149.25
2022-08-07T03:37:46.514Z,98152.34
2022-08-07T03:40:27.447Z,98149.66
2022-08-07T03:43:09.974Z,98151.50
2022-08-07T03:45:47.615Z,98150.06
2022-08-07T03:48:19.154Z,98158.97
2022-08-07T03:50:56.188Z,98149.81
2022-08-07T03:54:32.790Z,98148.19
2022-08-07T03:56:33.060Z,98153.97
2022-08-07T03:59:09.925Z,98142.75
2022-08-07T04:01:48.926Z,98143.41
2022-08-07T04:04:22.402Z,98139.66
2022-08-07T04:06:57.725Z,98140.69
2022-08-07T04:09:44.630Z,98151.06
2022-08-07T04:12:27.436Z,98153.31
2022-08-07T04:15:00.239Z,98150.00
2022-08-07T04:18:11.263Z,98154.78
2022-08-07T04:20:19.770Z,98153.75
2022-08-07T04:23:01.187Z,98158.53
2022-08-07T04:25:39.510Z,98155.84
2022-08-07T04:28:13.298Z,98162.44
2022-08-07T04:30:55.300Z,98166.41
2022-08-07T04:33:31.623Z,98171.41
2022-08-07T04:36:08.973Z,98173.47
2022-08-07T04:38:39.164Z,98174.31
2022-08-07T04:41:09.225Z,98174.31
2022-08-07T04:44:12.743Z,98175.97
2022-08-07T04:47:23.588Z,98179.53
2022-08-07T04:50:22.288Z,98174.97
2022-08-07T04:54:05.669Z,98176.59
2022-08-07T04:58:15.999Z,98181.22
2022-08-07T05:00:11.651Z,98179.97
2022-08-07T05:03:17.118Z,98181.41
2022-08-07T05:06:16.315Z,98181.22
2022-08-07T05:09:16.874Z,98187.44
2022-08-07T05:12:02.344Z,98187.63
2022-08-07T05:14:53.406Z,98192.00
2022-08-07T05:17:51.965Z,98190.00
2022-08-07T05:20:27.019Z,98183.94
2022-08-07T05:23:05.910Z,98193.88
2022-08-07T05:26:10.938Z,98197.41
2022-08-07T05:28:35.684Z,98203.66
2022-08-07T05:31:05.558Z,98199.91
2022-08-07T05:33:37.809Z,98200.53
2022-08-07T05:36:12.300Z,98195.56
2022-08-07T05:38:59.696Z,98203.03
2022-08-07T05:42:01.664Z,98204.34
2022-08-07T05:44:29.183Z,98201.19
2022-08-07T05:47:01.186Z,98208.09
2022-08-07T05:49:40.870Z,98209.72
2022-08-07T05:52:11.984Z,98205.78
2022-08-07T05:54:44.358Z,98204.56
2022-08-07T05:57:26.631Z,98205.59
2022-08-07T06:00:01.918Z,98213.47
2022-08-07T06:02:41.723Z,98218.06
2022-08-07T06:05:15.574Z,98210.78
2022-08-07T06:08:12.984Z,98218.47
2022-08-07T06:10:38.426Z,98220.13
2022-08-07T06:13:13.601Z,98223.03
2022-08-07T06:15:45.707Z,98224.69
2022-08-07T06:18:23.089Z,98231.97
2022-08-07T06:22:12.512Z,98226.16
2022-08-07T06:24:37.008Z,98221.78
2022-08-07T06:26:33.574Z,98222.59
2022-08-07T06:29:04.156Z,98224.06
2022-08-07T06:31:46.644Z,98223.22
2022-08-07T06:34:23.959Z,98221.13
2022-08-07T06:36:57.820Z,98216.56
2022-08-07T06:40:16.392Z,98213.00
2022-08-07T06:42:37.664Z,98214.66
2022-08-07T06:45:27.994Z,98214.00
2022-08-07T06:48:00.347Z,98209.00
2022-08-07T06:50:43.308Z,98210.69
2022-08-07T06:53:49.111Z,98212.53
2022-08-07T06:56:14.727Z,98208.13
2022-08-07T07:00:12.603Z,98212.28
2022-08-07T07:01:42.065Z,98208.31
2022-08-07T07:04:32.463Z,98207.69
2022-08-07T07:07:10.794Z,98210.34
2022-08-07T07:09:55.037Z,98207.16
2022-08-07T07:12:31.090Z,98208.00
2022-08-07T07:15:36.153Z,98214.22
2022-08-07T07:18:46.929Z,98214.41
2022-08-07T07:21:26.930Z,98208.31
2022-08-07T07:24:12.587Z,98211.03
2022-08-07T07:26:52.128Z,98214.50
2022-08-07T07:29:56.364Z,98210.72
2022-08-07T07:32:17.731Z,98214.22
2022-08-07T07:34:54.031Z,98211.31
2022-08-07T07:37:45.326Z,98208.75
2022-08-07T07:40:18.578Z,98212.44
2022-08-07T07:42:54.049Z,98205.50
2022-08-07T07:46:38.063Z,98204.84
2022-08-07T07:48:34.805Z,98203.28
2022-08-07T07:51:07.902Z,98203.84
2022-08-07T07:53:52.211Z,98206.91
2022-08-07T07:56:30.071Z,98198.09
2022-08-07T07:59:06.088Z,98204.31
2022-08-07T08:02:04.098Z,98201.13
2022-08-07T08:04:28.688Z,98195.19
2022-08-07T08:07:02.683Z,98200.78
2022-08-07T08:09:52.570Z,98191.50
2022-08-07T08:12:52.347Z,98193.31
2022-08-07T08:15:14.139Z,98190.06
2022-08-07T08:17:58.261Z,98177.91
2022-08-07T08:20:32.028Z,98184.09
2022-08-07T08:23:20.782Z,98181.53
2022-08-07T08:26:14.271Z,98182.19
2022-08-07T08:28:45.598Z,98189.56
2022-08-07T08:31:59.193Z,98184.72
2022-08-07T08:34:27.081Z,98181.09
2022-08-07T08:36:58.520Z,98185.22
2022-08-07T08:39:39.014Z,98176.16
2022-08-07T08:42:16.810Z,98175.84
2022-08-07T08:45:58.397Z,98183.81
2022-08-07T08:48:45.707Z,98179.69
2022-08-07T08:52:12.840Z,98181.34
2022-08-07T08:55:04.655Z,98170.84
2022-08-07T08:57:41.556Z,98174.38
2022-08-07T09:00:12.140Z,98168.13
2022-08-07T09:02:40.413Z,98167.19
2022-08-07T09:05:26.373Z,98166.03
2022-08-07T09:08:34.777Z,98157.94
2022-08-07T09:11:51.197Z,98164.09
2022-08-07T09:14:20.383Z,98154.16
2022-08-07T09:17:21.489Z,98139.97
2022-08-07T09:20:34.949Z,98145.88
2022-08-07T09:24:30.453Z,98147.78
2022-08-07T09:26:27.835Z,98153.56
2022-08-07T09:30:01.071Z,98156.88
2022-08-07T09:32:21.766Z,98161.50
2022-08-07T09:36:04.889Z,98153.91
2022-08-07T09:38:10.396Z,98154.59
2022-08-07T09:40:52.027Z,98152.09
2022-08-07T09:44:05.584Z,98151.97
2022-08-07T09:47:52.543Z,98146.38
2022-08-07T09:50:21.112Z,98136.56
2022-08-07T09:53:08.460Z,98137.72
2022-08-07T09:56:09.196Z,98133.69
2022-08-07T09:59:02.229Z,98135.69
2022-08-07T10:02:13.259Z,98127.63
2022-08-07T10:04:53.516Z,98127.31
2022-08-07T10:07:53.069Z,98127.38
2022-08-07T10:11:59.705Z,98126.81
2022-08-07T10:14:31.328Z,98125.53
2022-08-07T10:17:20.922Z,98117.50
2022-08-07T10:20:50.292Z,98119.91
2022-08-07T10:24:06.777Z,98108.66
2022-08-07T10:26:57.840Z,98097.88
2022-08-07T10:30:06.545Z,98102.94
2022-08-07T10:33:08.539Z,98095.47
2022-08-07T10:36:29.887Z,98084.09
2022-08-07T10:40:02.951Z,98085.06
2022-08-07T10:42:58.679Z,98078.59
2022-08-07T10:45:57.112Z,98081.09
2022-08-07T10:49:14.609Z,98084.44
2022-08-07T10:52:48.650Z,98076.63
2022-08-07T10:55:37.971Z,98071.66
2022-08-07T10:58:33.061Z,98069.50
2022-08-07T11:01:51.988Z,98064.41
2022-08-07T11:04:50.584Z,98073.81
2022-08-07T11:07:59.085Z,98056.25
2022-08-07T11:10:39.738Z,98050.28
2022-08-07T11:14:41.876Z,98051.41
2022-08-07T11:16:54.711Z,98054.78
2022-08-07T11:20:18.628Z,98045.53
2022-08-07T11:23:01.715Z,98042.28
2022-08-07T11:25:49.848Z,98043.94
2022-08-07T11:28:29.059Z,98035.47
2022-08-07T11:31:35.173Z,98037.19
2022-08-07T11:34:31.878Z,98039.72
2022-08-07T11:37:57.482Z,98034.28
2022-08-07T11:40:24.088Z,98037.38
2022-08-07T11:43:07.587Z,98036.59
2022-08-07T11:45:53.281Z,98028.19
2022-08-07T11:48:31.309Z,98024.09
2022-08-07T11:51:44.703Z,98027.69
2022-08-07T11:54:37.524Z,98019.53
2022-08-07T11:58:00.203Z,98019.78
2022-08-07T12:00:40.523Z,98025.56
2022-08-07T12:03:48.465Z,98020.69
2022-08-07T12:06:37.280Z,98014.44
2022-08-07T12:09:23.440Z,98016.41
2022-08-07T12:12:11.658Z,98015.09
2022-08-07T12:15:01.640Z,98009.34
2022-08-07T12:17:59.739Z,98002.56
2022-08-07T12:21:11.240Z,98008.91
2022-08-07T12:24:36.818Z,98005.94
2022-08-07T12:27:16.850Z,98007.88
2022-08-07T12:30:06.481Z,97992.59
2022-08-07T12:32:58.067Z,97986.59
2022-08-07T12:35:29.170Z,97990.19
2022-08-07T12:38:08.675Z,97986.34
2022-08-07T12:40:47.375Z,97990.47
2022-08-07T12:44:02.377Z,97979.25
2022-08-07T12:47:01.217Z,97988.06
2022-08-07T12:49:51.678Z,97983.09
2022-08-07T12:52:55.845Z,97983.91
2022-08-07T12:55:40.759Z,97978.13
2022-08-07T12:58:28.034Z,97980.00
2022-08-07T13:02:01.416Z,97977.19
2022-08-07T13:05:14.950Z,97982.31
2022-08-07T13:08:43.333Z,97975.94
2022-08-07T13:12:03.168Z,97970.94
2022-08-07T13:14:51.414Z,97969.69
2022-08-07T13:17:40.862Z,97965.78
2022-08-07T13:20:27.945Z,97963.56
2022-08-07T13:24:03.973Z,97957.69
2022-08-07T13:26:20.025Z,97961.94
2022-08-07T13:29:23.638Z,97948.34
2022-08-07T13:32:31.900Z,97957.28
2022-08-07T13:35:15.785Z,97953.81
2022-08-07T13:38:01.081Z,97951.94
2022-08-07T13:40:55.852Z,97946.53
2022-08-07T13:43:25.248Z,97932.66
2022-08-07T13:46:21.079Z,97940.44
2022-08-07T13:48:59.397Z,97929.22
2022-08-07T13:52:23.096Z,97926.78
2022-08-07T13:54:33.551Z,97921.16
2022-08-07T13:57:07.128Z,97919.28
2022-08-07T13:59:39.843Z,97914.09
2022-08-07T14:02:49.155Z,97913.91
2022-08-07T14:05:23.588Z,97911.38
2022-08-07T14:08:00.813Z,97913.38
2022-08-07T14:10:42.228Z,97917.50
2022-08-07T14:13:18.584Z,97913.59
2022-08-07T14:16:00.369Z,97902.56
2022-08-07T14:18:57.360Z,97894.66
2022-08-07T14:22:01.861Z,97906.63
2022-08-07T14:24:42.062Z,97898.63
2022-08-07T14:28:09.220Z,97898.72
2022-08-07T14:30:12.614Z,97892.31
2022-08-07T14:32:50.672Z,97900.28
2022-08-07T14:35:44.746Z,97889.28
2022-08-07T14:38:26.565Z,97894.22
2022-08-07T14:41:14.713Z,97900.84
2022-08-07T14:43:58.070Z,97891.66
2022-08-07T14:46:37.359Z,97886.66
2022-08-07T14:49:57.418Z,97886.41
2022-08-07T14:52:27.609Z,97883.53
2022-08-07T14:54:59.756Z,97884.97
2022-08-07T15:00:30.672Z,97876.41
2022-08-07T15:05:54.112Z,97872.75
2022-08-07T15:11:53.919Z,97874.81
2022-08-07T15:14:30.485Z,97873.84
2022-08-07T15:17:11.502Z,97879.69
2022-08-07T15:25:54.925Z,97868.63
2022-08-07T15:28:32.453Z,97861.78
2022-08-07T15:31:09.572Z,97870.09
2022-08-07T15:33:42.854Z,97858.34
2022-08-07T15:36:12.220Z,97862.44
2022-08-07T15:38:58.753Z,97860.00
2022-08-07T15:42:46.467Z,97860.00
2022-08-07T15:44:23.555Z,97852.63
2022-08-07T15:47:08.733Z,97862.91
2022-08-07T15:50:05.274Z,97854.94
2022-08-07T15:52:38.150Z,97852.44
2022-08-07T15:55:14.609Z,97857.63
2022-08-07T15:57:51.336Z,97849.50
2022-08-07T16:00:31.638Z,97851.75
2022-08-07T16:03:20.938Z,97856.97
2022-08-07T16:06:09.505Z,97852.72
2022-08-07T16:08:45.445Z,97845.69
2022-08-07T16:11:39.901Z,97841.84
2022-08-07T16:14:38.328Z,97840.88
2022-08-07T16:18:02.820Z,97841.38
2022-08-07T16:21:44.090Z,97837.41
2022-08-07T16:24:01.218Z,97836.13
2022-08-07T16:26:58.896Z,97832.41
2022-08-07T16:30:09.739Z,97833.94
2022-08-07T16:32:46.349Z,97831.38
2022-08-07T16:35:52.394Z,97825.41
2022-08-07T16:39:02.264Z,97826.28
2022-08-07T16:42:03.944Z,97830.75
2022-08-07T16:45:15.051Z,97828.16
2022-08-07T16:48:58.229Z,97825.47
2022-08-07T16:52:51.763Z,97830.53
2022-08-07T16:55:47.635Z,97843.28
2022-08-07T16:59:11.189Z,97842.03
2022-08-07T17:01:34.665Z,97835.84
2022-08-07T17:04:14.535Z,97830.13
2022-08-07T17:07:05.509Z,97829.09
2022-08-07T17:10:09.316Z,97827.13
2022-08-07T17:13:04.623Z,97834.34
2022-08-07T17:15:56.389Z,97835.53
2022-08-07T17:18:35.855Z,97830.88
2022-08-07T17:21:51.284Z,97834.34
2022-08-07T17:24:57.955Z,97837.25
2022-08-07T17:27:50.977Z,97845.88
2022-08-07T17:30:26.581Z,97853.88
2022-08-07T17:34:08.496Z,97850.66
2022-08-07T17:36:26.086Z,97851.56
2022-08-07T17:39:10.331Z,97857.72
2022-08-07T17:42:06.905Z,97858.03
2022-08-07T17:44:54.813Z,97863.38
2022-08-07T17:47:54.023Z,97865.09
2022-08-07T17:50:54.387Z,97858.31
2022-08-07T17:54:29.386Z,97863.63
2022-08-07T17:57:22.855Z,97870.84
2022-08-07T18:00:33.267Z,97865.16
2022-08-07T18:03:21.010Z,97870.69
2022-08-07T18:06:16.719Z,97867.16
2022-08-07T18:09:05.412Z,97863.09
2022-08-07T18:12:17.491Z,97868.13
2022-08-07T18:15:40.523Z,97870.34
2022-08-07T18:18:45.477Z,97878.38
2022-08-07T18:21:53.620Z,97877.66
2022-08-07T18:25:18.994Z,97878.84
2022-08-07T18:28:35.799Z,97883.25
2022-08-07T18:31:50.259Z,97895.63
2022-08-07T18:34:53.193Z,97894.84
2022-08-07T18:38:58.811Z,97897.88
2022-08-07T18:41:09.026Z,97906.34
2022-08-07T18:45:39.502Z,97906.63
2022-08-07T18:47:45.238Z,97913.50
2022-08-07T18:50:45.895Z,97914.28
2022-08-07T18:53:48.664Z,97919.47
2022-08-07T18:57:23.394Z,97925.44
2022-08-07T19:00:34.487Z,97931.44
2022-08-07T19:03:12.117Z,97936.31
2022-08-07T19:06:03.205Z,97943.34
2022-08-07T19:08:55.859Z,97943.06
2022-08-07T19:12:04.601Z,97947.09
2022-08-07T19:14:55.855Z,97955.81
2022-08-07T19:18:11.344Z,97956.78
2022-08-07T19:21:13.931Z,97960.53
2022-08-07T19:24:00.296Z,97964.75
2022-08-07T19:27:09.259Z,97976.66
2022-08-07T19:31:05.542Z,97969.72
2022-08-07T19:32:28.780Z,97972.91
2022-08-07T19:35:03.292Z,97969.53
2022-08-07T19:37:56.874Z,97973.31
2022-08-07T19:40:31.165Z,97974.53
2022-08-07T19:43:09.605Z,97977.69
2022-08-07T19:46:07.151Z,97982.53
2022-08-07T19:48:43.077Z,97977.00
2022-08-07T19:51:19.832Z,97981.53
2022-08-07T19:54:33.606Z,97978.41
2022-08-07T19:57:56.806Z,97976.94
2022-08-07T19:59:42.024Z,97980.69
2022-08-07T20:02:25.963Z,97974.88
2022-08-07T20:04:56.584Z,97974.44
2022-08-07T20:07:46.578Z,97989.34
2022-08-07T20:10:37.290Z,97988.44
2022-08-07T20:13:41.752Z,97985.38
2022-08-07T20:16:34.840Z,97982.66
2022-08-07T20:19:11.131Z,97982.06
2022-08-07T20:21:48.290Z,97977.88
2022-08-07T20:24:28.644Z,97974.56
2022-08-07T20:27:07.467Z,97976.69
2022-08-07T20:29:47.752Z,97969.81
2022-08-07T20:32:39.853Z,97971.72
2022-08-07T20:35:51.586Z,97971.97
2022-08-07T20:38:22.234Z,97975.19
2022-08-07T20:40:53.983Z,97970.75
2022-08-07T20:43:26.748Z,97969.34
2022-08-07T20:46:28.047Z,97962.72
2022-08-07T20:49:55.100Z,97966.53
2022-08-07T20:51:40.586Z,97963.50
2022-08-07T20:54:31.754Z,97966.47
2022-08-07T20:57:06.783Z,97966.47
2022-08-07T21:00:08.449Z,97969.94
2022-08-07T21:02:54.305Z,97964.94
2022-08-07T21:05:54.819Z,97969.00
2022-08-07T21:08:52.409Z,97964.03
2022-08-07T21:11:29.070Z,97962.53
2022-08-07T21:14:33.212Z,97971.69
2022-08-07T21:18:03.165Z,97968.63
2022-08-07T21:20:09.940Z,97964.19
2022-08-07T21:22:51.320Z,97972.00
2022-08-07T21:25:56.906Z,97970.28
2022-08-07T21:28:55.104Z,97972.09
2022-08-07T21:32:42.075Z,97974.69
2022-08-07T21:35:05.901Z,97968.84
2022-08-07T21:38:27.871Z,97963.53
2022-08-07T21:41:59.746Z,97961.19
2022-08-07T21:44:54.186Z,97963.22
2022-08-07T21:47:50.151Z,97967.13
2022-08-07T21:50:50.769Z,97971.66
2022-08-07T21:53:52.442Z,97977.59
2022-08-07T21:57:03.205Z,97971.69
2022-08-07T22:00:05.489Z,97973.75
2022-08-07T22:02:59.130Z,97975.03
2022-08-07T22:05:45.509Z,97972.91
2022-08-07T22:08:18.656Z,97978.25
2022-08-07T22:10:57.975Z,97979.81
2022-08-07T22:13:52.898Z,97984.31
2022-08-07T22:16:38.397Z,97985.81
2022-08-07T22:19:30.100Z,97982.38
2022-08-07T22:22:29.466Z,97984.75
2022-08-07T22:25:11.176Z,97989.81
2022-08-07T22:28:32.156Z,97985.47
2022-08-07T22:31:45.455Z,97983.22
2022-08-07T22:34:31.659Z,97980.63
2022-08-07T22:38:02.852Z,97976.13
2022-08-07T22:40:57.508Z,97977.91
2022-08-07T22:44:00.975Z,97982.03
2022-08-07T22:47:04.412Z,97976.69
2022-08-07T22:50:03.513Z,97982.97
2022-08-07T22:52:45.878Z,97989.81
2022-08-07T22:55:44.048Z,97982.63
2022-08-07T22:59:01.339Z,97981.06
2022-08-07T23:02:13.660Z,97982.44
2022-08-07T23:06:08.270Z,97986.91
2022-08-07T23:10:01.219Z,97988.22
2022-08-07T23:12:34.471Z,97985.94
2022-08-07T23:16:04.516Z,97982.84
2022-08-07T23:19:11.172Z,97980.03
2022-08-07T23:22:22.726Z,97978.59
2022-08-07T23:25:20.957Z,97984.94
2022-08-07T23:28:34.510Z,97991.91
2022-08-07T23:34:18.889Z,97993.41
2022-08-07T23:35:27.923Z,97987.63
2022-08-07T23:38:36.892Z,97991.41
2022-08-07T23:41:33.281Z,97986.66
2022-08-07T23:44:29.474Z,97991.50
2022-08-07T23:47:16.574Z,97995.13
2022-08-07T23:50:05.933Z,97987.06
2022-08-07T23:53:08.516Z,97988.13
2022-08-07T23:56:03.988Z,97985.78
2022-08-07T23:59:10.610Z,97990.63
